createdAt,value
2022-10-05T00:02:24.752Z,18.90
2022-10-05T00:04:57.196Z,17.80
2022-10-05T00:07:25.229Z,14.20
2022-10-05T00:09:57.887Z,15.10
2022-10-05T00:12:28.418Z,16.70
2022-10-05T00:15:00.775Z,17.40
2022-10-05T00:17:30.707Z,13.80
2022-10-05T00:19:58.250Z,13.40
2022-10-05T00:22:33.863Z,13.90
2022-10-05T00:25:11.269Z,15.80
2022-10-05T00:27:39.110Z,15.10
2022-10-05T00:30:23.279Z,17.80
2022-10-05T00:32:53.888Z,12.70
2022-10-05T00:35:25.178Z,14.00
2022-10-05T00:37:55.098Z,14.20
2022-10-05T00:40:51.775Z,15.20
2022-10-05T00:43:21.965Z,14.90
2022-10-05T00:46:15.967Z,17.30
2022-10-05T00:49:05.170Z,17.50
2022-10-05T00:51:37.757Z,14.90
2022-10-05T00:54:37.350Z,14.80
2022-10-05T00:57:36.813Z,14.10
2022-10-05T01:00:13.544Z,14.00
2022-10-05T01:03:13.126Z,15.10
2022-10-05T01:06:11.620Z,15.40
2022-10-05T01:09:01.747Z,14.70
2022-10-05T01:11:31.874Z,23.20
2022-10-05T01:14:16.409Z,18.40
2022-10-05T01:16:47.105Z,19.10
2022-10-05T01:19:56.888Z,36.30
2022-10-05T01:22:53.265Z,19.30
2022-10-05T01:25:38.483Z,18.70
2022-10-05T01:28:06.058Z,16.60
2022-10-05T01:30:57.660Z,18.40
2022-10-05T01:33:29.325Z,15.40
2022-10-05T01:36:08.999Z,21.40
2022-10-05T01:39:02.023Z,16.10
2022-10-05T01:41:44.901Z,15.90
2022-10-05T01:44:18.030Z,17.60
2022-10-05T01:47:03.797Z,18.60
2022-10-05T01:49:47.374Z,13.70
2022-10-05T01:52:24.523Z,17.00
2022-10-05T01:55:24.005Z,16.70
2022-10-05T01:58:06.617Z,22.60
2022-10-05T02:00:49.713Z,19.20
2022-10-05T02:03:45.590Z,17.00
2022-10-05T02:06:32.605Z,17.30
2022-10-05T02:09:11.708Z,15.90
2022-10-05T02:11:42.767Z,16.80
2022-10-05T02:14:20.478Z,14.20
2022-10-05T02:16:52.518Z,13.90
2022-10-05T02:19:40.190Z,17.00
2022-10-05T02:22:17.739Z,17.20
2022-10-05T02:24:57.614Z,14.70
2022-10-05T02:27:31.582Z,16.20
2022-10-05T02:30:06.589Z,17.30
2022-10-05T02:32:45.776Z,21.20
2022-10-05T02:35:19.475Z,21.30
2022-10-05T02:37:46.935Z,23.50
2022-10-05T02:40:47.501Z,25.00
2022-10-05T02:43:43.879Z,23.90
2022-10-05T02:46:44.838Z,18.90
2022-10-05T02:49:28.763Z,21.50
2022-10-05T02:52:21.275Z,18.60
2022-10-05T02:55:03.910Z,17.90
2022-10-05T02:57:37.287Z,15.40
2022-10-05T03:00:25.037Z,16.80
2022-10-05T03:03:14.582Z,19.50
2022-10-05T03:05:53.377Z,20.30
2022-10-05T03:08:42.339Z,21.80
2022-10-05T03:11:41.083Z,19.00
2022-10-05T03:14:13.822Z,20.40
2022-10-05T03:17:00.009Z,18.90
2022-10-05T03:19:54.412Z,16.40
2022-10-05T03:22:40.423Z,17.60
2022-10-05T03:25:29.797Z,16.00
2022-10-05T03:28:16.221Z,17.90
2022-10-05T03:31:00.482Z,23.20
2022-10-05T03:33:49.945Z,18.50
2022-10-05T03:36:37.957Z,16.80
2022-10-05T03:39:21.498Z,20.30
2022-10-05T03:42:08.335Z,19.40
2022-10-05T03:44:51.854Z,18.20
2022-10-05T03:48:01.517Z,27.30
2022-10-05T03:50:34.127Z,24.00
2022-10-05T03:53:25.278Z,24.10
2022-10-05T03:56:10.662Z,26.10
2022-10-05T03:58:50.542Z,26.10
2022-10-05T04:01:25.509Z,24.40
2022-10-05T04:03:59.438Z,25.50
2022-10-05T04:06:34.219Z,23.80
2022-10-05T04:09:20.687Z,28.60
2022-10-05T04:11:54.884Z,181.30
2022-10-05T04:14:40.578Z,360.30
2022-10-05T04:17:17.185Z,187.50
2022-10-05T04:19:59.138Z,59.30
2022-10-05T04:22:37.275Z,39.40
2022-10-05T04:25:29.650Z,35.90
2022-10-05T04:28:32.201Z,25.50
2022-10-05T04:31:03.874Z,19.40
2022-10-05T04:33:33.161Z,21.50
2022-10-05T04:36:19.546Z,21.70
2022-10-05T04:39:03.122Z,19.30
2022-10-05T04:42:00.611Z,21.20
2022-10-05T04:44:44.100Z,71.60
2022-10-05T04:47:30.666Z,29.70
2022-10-05T04:50:10.999Z,21.60
2022-10-05T04:53:14.769Z,26.00
2022-10-05T04:56:15.050Z,21.80
2022-10-05T04:59:13.508Z,26.60
2022-10-05T05:01:58.547Z,20.40
2022-10-05T05:04:42.119Z,21.20
2022-10-05T05:07:16.116Z,21.90
2022-10-05T05:10:15.661Z,21.60
2022-10-05T05:13:05.332Z,23.90
2022-10-05T05:15:51.629Z,21.40
2022-10-05T05:18:34.032Z,20.70
2022-10-05T05:21:22.699Z,19.20
2022-10-05T05:24:11.859Z,23.90
2022-10-05T05:27:12.284Z,18.50
2022-10-05T05:30:02.542Z,21.90
2022-10-05T05:32:41.741Z,19.50
2022-10-05T05:35:27.863Z,17.70
2022-10-05T05:38:27.577Z,23.50
2022-10-05T05:41:11.356Z,24.40
2022-10-05T05:43:55.043Z,25.20
2022-10-05T05:47:04.015Z,23.80
2022-10-05T05:49:50.217Z,23.60
2022-10-05T05:52:52.671Z,18.50
2022-10-05T05:55:30.612Z,24.10
2022-10-05T05:58:32.258Z,27.70
2022-10-05T06:01:13.195Z,32.60
2022-10-05T06:04:10.996Z,25.30
2022-10-05T06:06:58.006Z,21.40
2022-10-05T06:09:40.434Z,26.50
2022-10-05T06:12:23.614Z,30.20
2022-10-05T06:15:23.958Z,31.00
2022-10-05T06:17:58.841Z,30.10
2022-10-05T06:20:33.817Z,34.80
2022-10-05T06:23:18.817Z,42.80
2022-10-05T06:26:22.604Z,17.60
2022-10-05T06:29:04.568Z,21.60
2022-10-05T06:32:04.133Z,25.60
2022-10-05T06:34:42.033Z,21.90
2022-10-05T06:37:33.159Z,22.50
2022-10-05T06:40:15.675Z,15.40
2022-10-05T06:43:08.087Z,17.10
2022-10-05T06:46:00.141Z,16.00
2022-10-05T06:48:58.841Z,19.10
2022-10-05T06:51:43.967Z,16.30
2022-10-05T06:54:22.996Z,15.00
2022-10-05T06:57:04.173Z,14.40
2022-10-05T07:00:02.056Z,16.90
2022-10-05T07:02:55.886Z,16.50
2022-10-05T07:05:46.113Z,21.90
2022-10-05T07:08:15.981Z,17.80
2022-10-05T07:11:05.584Z,21.90
2022-10-05T07:14:05.154Z,17.20
2022-10-05T07:17:01.660Z,19.60
2022-10-05T07:19:36.981Z,21.80
2022-10-05T07:22:20.485Z,28.60
2022-10-05T07:25:08.340Z,19.80
2022-10-05T07:27:48.273Z,22.10
2022-10-05T07:30:19.820Z,19.00
2022-10-05T07:33:05.688Z,14.60
2022-10-05T07:36:21.930Z,16.80
2022-10-05T07:39:01.510Z,21.90
2022-10-05T07:41:43.774Z,21.80
2022-10-05T07:44:16.695Z,16.70
2022-10-05T07:46:58.613Z,17.70
2022-10-05T07:49:45.170Z,18.10
2022-10-05T07:52:28.283Z,22.50
2022-10-05T07:55:31.310Z,20.30
2022-10-05T07:58:17.684Z,35.20
2022-10-05T08:01:13.772Z,26.90
2022-10-05T08:04:03.399Z,28.70
2022-10-05T08:06:50.207Z,48.30
2022-10-05T08:09:50.085Z,28.10
2022-10-05T08:12:37.547Z,17.90
2022-10-05T08:15:27.313Z,13.60
2022-10-05T08:18:02.465Z,17.20
2022-10-05T08:20:33.872Z,16.50
2022-10-05T08:23:08.782Z,13.90
2022-10-05T08:26:00.306Z,14.70
2022-10-05T08:28:38.692Z,14.20
2022-10-05T08:31:20.947Z,14.50
2022-10-05T08:33:58.556Z,18.70
2022-10-05T08:36:58.677Z,25.70
2022-10-05T08:39:32.003Z,21.00
2022-10-05T08:42:06.947Z,18.20
2022-10-05T08:44:57.352Z,17.90
2022-10-05T08:47:58.307Z,17.30
2022-10-05T08:50:46.291Z,21.30
2022-10-05T08:53:33.225Z,17.20
2022-10-05T08:56:22.195Z,20.40
2022-10-05T08:59:19.576Z,14.00
2022-10-05T09:01:50.732Z,13.50
2022-10-05T09:04:51.625Z,16.20
2022-10-05T09:07:27.208Z,13.90
2022-10-05T09:10:24.747Z,14.80
2022-10-05T09:12:52.207Z,12.80
2022-10-05T09:15:28.632Z,12.60
2022-10-05T09:18:28.208Z,12.00
2022-10-05T09:21:02.961Z,13.60
2022-10-05T09:23:49.846Z,12.10
2022-10-05T09:26:49.333Z,20.10
2022-10-05T09:29:53.242Z,19.80
2022-10-05T09:32:51.703Z,13.60
2022-10-05T09:35:57.496Z,12.80
2022-10-05T09:38:57.000Z,11.00
2022-10-05T09:41:27.121Z,15.80
2022-10-05T09:44:18.436Z,11.20
2022-10-05T09:47:25.357Z,11.90
2022-10-05T09:50:07.979Z,12.40
2022-10-05T09:52:51.586Z,11.20
2022-10-05T09:55:35.074Z,11.20
2022-10-05T09:58:17.546Z,16.80
2022-10-05T10:01:03.690Z,12.30
2022-10-05T10:03:56.796Z,10.70
2022-10-05T10:06:46.514Z,12.30
2022-10-05T10:09:46.109Z,14.10
2022-10-05T10:12:42.286Z,13.60
2022-10-05T10:15:40.824Z,11.80
2022-10-05T10:18:20.840Z,12.50
2022-10-05T10:21:20.371Z,23.70
2022-10-05T10:24:14.806Z,11.70
2022-10-05T10:26:49.569Z,14.30
2022-10-05T10:29:39.783Z,12.60
2022-10-05T10:32:13.412Z,20.10
2022-10-05T10:35:20.396Z,14.10
2022-10-05T10:38:20.249Z,9.50
2022-10-05T10:41:06.042Z,12.20
2022-10-05T10:44:05.729Z,12.40
2022-10-05T10:47:07.223Z,11.00
2022-10-05T10:49:53.445Z,9.10
2022-10-05T10:53:03.387Z,9.00
2022-10-05T10:55:38.022Z,10.20
2022-10-05T10:58:36.766Z,9.90
2022-10-05T11:01:36.320Z,9.80
2022-10-05T11:04:09.892Z,9.60
2022-10-05T11:07:09.303Z,12.30
2022-10-05T11:09:55.525Z,9.40
2022-10-05T11:12:41.214Z,10.60
2022-10-05T11:15:25.427Z,11.10
2022-10-05T11:18:01.240Z,9.50
2022-10-05T11:20:44.724Z,10.90
2022-10-05T11:23:29.590Z,11.20
2022-10-05T11:25:57.129Z,12.30
2022-10-05T11:28:50.118Z,9.60
2022-10-05T11:31:21.077Z,11.10
2022-10-05T11:34:11.793Z,10.50
2022-10-05T11:37:15.855Z,8.00
2022-10-05T11:39:55.503Z,8.70
2022-10-05T11:42:49.333Z,8.60
2022-10-05T11:45:45.451Z,7.30
2022-10-05T11:48:30.373Z,7.60
2022-10-05T11:51:30.120Z,9.10
2022-10-05T11:54:32.526Z,8.70
2022-10-05T11:57:18.866Z,9.00
2022-10-05T12:00:07.023Z,14.40
2022-10-05T12:02:54.480Z,11.70
2022-10-05T12:05:53.109Z,9.50
2022-10-05T12:08:26.666Z,9.40
2022-10-05T12:11:13.075Z,10.70
2022-10-05T12:13:56.032Z,11.90
2022-10-05T12:16:39.694Z,9.60
2022-10-05T12:19:27.194Z,10.80
2022-10-05T12:22:04.206Z,14.50
2022-10-05T12:25:08.063Z,11.60
2022-10-05T12:27:43.605Z,16.10
2022-10-05T12:30:18.159Z,10.00
2022-10-05T12:33:01.731Z,12.30
2022-10-05T12:35:47.379Z,11.80
2022-10-05T12:38:38.170Z,8.90
2022-10-05T12:41:40.547Z,10.90
2022-10-05T12:44:13.899Z,10.30
2022-10-05T12:46:57.315Z,9.40
2022-10-05T12:49:56.836Z,9.90
2022-10-05T12:52:43.394Z,10.70
2022-10-05T12:55:15.718Z,14.60
2022-10-05T12:58:21.966Z,13.40
2022-10-05T13:00:58.360Z,10.60
2022-10-05T13:03:36.902Z,12.00
2022-10-05T13:06:23.195Z,10.80
2022-10-05T13:09:14.668Z,10.90
2022-10-05T13:11:48.989Z,11.70
2022-10-05T13:14:46.602Z,12.40
2022-10-05T13:17:43.434Z,8.20
2022-10-05T13:20:24.841Z,9.50
2022-10-05T13:23:12.732Z,9.50
2022-10-05T13:26:08.008Z,12.50
2022-10-05T13:28:59.619Z,12.20
2022-10-05T13:31:33.222Z,19.50
2022-10-05T13:34:42.151Z,14.60
2022-10-05T13:37:24.678Z,18.30
2022-10-05T13:40:01.169Z,26.40
2022-10-05T13:42:38.624Z,35.00
2022-10-05T13:45:18.808Z,26.20
2022-10-05T13:47:51.326Z,17.50
2022-10-05T13:50:50.866Z,17.90
2022-10-05T13:53:35.496Z,15.60
2022-10-05T13:56:16.087Z,10.60
2022-10-05T13:59:07.528Z,12.10
2022-10-05T14:01:49.747Z,9.00
2022-10-05T14:04:19.736Z,14.80
2022-10-05T14:06:48.843Z,13.00
2022-10-05T14:09:19.381Z,19.50
2022-10-05T14:11:50.360Z,19.70
2022-10-05T14:14:28.250Z,16.70
2022-10-05T14:17:00.498Z,19.40
2022-10-05T14:19:41.367Z,18.10
2022-10-05T14:22:27.339Z,31.90
2022-10-05T14:25:02.075Z,37.30
2022-10-05T14:27:33.660Z,202.70
2022-10-05T14:30:18.269Z,107.70
2022-10-05T14:32:57.310Z,42.00
2022-10-05T14:35:51.280Z,38.30
2022-10-05T14:38:30.179Z,30.80
2022-10-05T14:41:19.846Z,27.80
2022-10-05T14:43:53.141Z,46.20
2022-10-05T14:46:29.049Z,51.20
2022-10-05T14:49:21.167Z,24.30
2022-10-05T14:51:53.787Z,35.60
2022-10-05T14:54:47.527Z,24.50
2022-10-05T14:57:44.432Z,11.70
2022-10-05T15:00:17.482Z,11.30
2022-10-05T15:03:23.931Z,23.00
2022-10-05T15:05:58.775Z,29.20
2022-10-05T15:08:50.711Z,16.30
2022-10-05T15:11:34.955Z,14.50
2022-10-05T15:14:13.824Z,11.30
2022-10-05T15:16:42.421Z,13.10
2022-10-05T15:19:22.643Z,13.20
2022-10-05T15:22:10.526Z,22.00
2022-10-05T15:24:46.102Z,31.00
2022-10-05T15:27:36.465Z,114.10
2022-10-05T15:30:23.145Z,115.80
2022-10-05T15:33:14.518Z,259.70
2022-10-05T15:36:14.574Z,245.70
2022-10-05T15:39:03.900Z,192.10
2022-10-05T15:41:58.918Z,120.40
2022-10-05T15:44:52.243Z,139.20
2022-10-05T15:47:28.675Z,79.40
2022-10-05T15:50:07.505Z,16.80
2022-10-05T15:52:48.601Z,12.50
2022-10-05T15:55:35.352Z,22.40
2022-10-05T15:58:25.599Z,12.40
2022-10-05T16:01:10.162Z,13.70
2022-10-05T16:04:09.641Z,26.10
2022-10-05T16:07:05.620Z,18.80
2022-10-05T16:10:15.341Z,18.00
2022-10-05T16:13:14.891Z,12.70
2022-10-05T16:16:04.451Z,15.10
2022-10-05T16:18:47.985Z,16.60
2022-10-05T16:21:44.027Z,15.70
2022-10-05T16:24:45.802Z,15.10
2022-10-05T16:27:22.682Z,14.80
2022-10-05T16:30:09.765Z,12.80
2022-10-05T16:32:53.596Z,15.50
2022-10-05T16:35:39.259Z,10.80
2022-10-05T16:38:19.397Z,11.90
2022-10-05T16:40:59.652Z,33.00
2022-10-05T16:43:51.960Z,13.90
2022-10-05T16:46:36.587Z,14.50
2022-10-05T16:49:37.121Z,16.10
2022-10-05T16:52:08.389Z,12.10
2022-10-05T16:54:57.822Z,12.10
2022-10-05T16:57:46.355Z,18.50
2022-10-05T17:00:16.804Z,94.40
2022-10-05T17:02:51.092Z,31.60
2022-10-05T17:05:24.761Z,29.40
2022-10-05T17:08:21.550Z,19.80
2022-10-05T17:10:49.337Z,15.30
2022-10-05T17:13:23.614Z,16.40
2022-10-05T17:16:10.005Z,29.10
2022-10-05T17:19:09.675Z,23.80
2022-10-05T17:22:01.937Z,25.70
2022-10-05T17:24:35.513Z,48.30
2022-10-05T17:27:32.988Z,34.80
2022-10-05T17:30:39.742Z,39.30
2022-10-05T17:33:29.959Z,20.20
2022-10-05T17:36:17.123Z,27.50
2022-10-05T17:39:12.461Z,22.70
2022-10-05T17:41:40.215Z,58.90
2022-10-05T17:44:19.518Z,29.10
2022-10-05T17:47:04.768Z,26.20
2022-10-05T17:50:27.296Z,29.80
2022-10-05T17:53:42.793Z,24.90
2022-10-05T17:56:10.368Z,23.40
2022-10-05T17:58:44.189Z,15.40
2022-10-05T18:01:25.279Z,28.60
2022-10-05T18:03:52.923Z,27.30
2022-10-05T18:06:28.212Z,14.90
2022-10-05T18:09:30.824Z,19.20
2022-10-05T18:12:11.168Z,18.90
2022-10-05T18:15:10.718Z,18.30
2022-10-05T18:17:46.213Z,25.30
2022-10-05T18:20:15.155Z,21.80
2022-10-05T18:22:46.884Z,26.00
2022-10-05T18:25:47.621Z,17.80
2022-10-05T18:28:50.796Z,14.90
2022-10-05T18:31:26.416Z,22.20
2022-10-05T18:34:26.732Z,17.80
2022-10-05T18:37:25.847Z,20.40
2022-10-05T18:40:09.674Z,22.90
2022-10-05T18:43:03.353Z,23.00
2022-10-05T18:46:02.952Z,35.30
2022-10-05T18:49:02.535Z,34.90
2022-10-05T18:51:51.825Z,27.50
2022-10-05T18:54:54.415Z,25.30
2022-10-05T18:57:28.239Z,49.50
2022-10-05T19:00:17.439Z,58.80
2022-10-05T19:03:17.806Z,57.70
2022-10-05T19:06:00.622Z,45.80
2022-10-05T19:08:32.864Z,51.10
2022-10-05T19:11:05.713Z,37.20
2022-10-05T19:13:57.315Z,52.20
2022-10-05T19:16:27.986Z,38.90
2022-10-05T19:19:07.541Z,33.80
2022-10-05T19:21:38.657Z,23.20
2022-10-05T19:24:16.572Z,26.80
2022-10-05T19:27:01.481Z,22.40
2022-10-05T19:29:53.150Z,25.10
2022-10-05T19:32:52.726Z,29.10
2022-10-05T19:35:39.041Z,33.70
2022-10-05T19:38:14.586Z,23.50
2022-10-05T19:40:58.998Z,28.10
2022-10-05T19:43:35.786Z,21.50
2022-10-05T19:46:22.188Z,19.90
2022-10-05T19:48:54.250Z,15.30
2022-10-05T19:51:29.487Z,15.70
2022-10-05T19:54:21.775Z,16.20
2022-10-05T19:56:53.019Z,14.80
2022-10-05T19:59:27.252Z,15.40
2022-10-05T20:01:56.625Z,24.50
2022-10-05T20:04:41.362Z,35.40
2022-10-05T20:07:15.574Z,55.60
2022-10-05T20:09:58.490Z,49.70
2022-10-05T20:12:50.501Z,27.70
2022-10-05T20:15:37.129Z,23.10
2022-10-05T20:18:52.873Z,18.20
2022-10-05T20:21:57.283Z,20.30
2022-10-05T20:24:29.612Z,19.90
2022-10-05T20:27:02.212Z,19.00
2022-10-05T20:29:41.095Z,18.80
2022-10-05T20:32:15.232Z,19.30
2022-10-05T20:34:46.373Z,21.40
2022-10-05T20:37:16.402Z,21.60
2022-10-05T20:39:45.128Z,16.50
2022-10-05T20:42:12.675Z,15.90
2022-10-05T20:44:40.761Z,16.50
2022-10-05T20:47:11.254Z,14.90
2022-10-05T20:49:44.461Z,15.60
2022-10-05T20:52:15.069Z,17.60
2022-10-05T20:54:42.801Z,19.90
2022-10-05T20:57:10.453Z,17.90
2022-10-05T20:59:38.016Z,17.80
2022-10-05T21:02:06.169Z,15.10
2022-10-05T21:04:43.098Z,15.80
2022-10-05T21:07:10.884Z,14.40
2022-10-05T21:09:39.512Z,16.10
2022-10-05T21:12:07.059Z,16.20
2022-10-05T21:14:36.685Z,16.20
2022-10-05T21:17:07.556Z,15.90
2022-10-05T21:19:40.507Z,16.00
2022-10-05T21:22:10.190Z,15.50
2022-10-05T21:24:39.400Z,13.00
2022-10-05T21:27:09.553Z,15.60
2022-10-05T21:29:37.286Z,14.20
2022-10-05T21:32:09.059Z,14.00
2022-10-05T21:34:37.882Z,15.20
2022-10-05T21:37:05.513Z,20.60
2022-10-05T21:39:34.925Z,15.10
2022-10-05T21:42:02.825Z,17.70
2022-10-05T21:44:30.397Z,21.90
2022-10-05T21:46:58.054Z,23.50
2022-10-05T21:49:27.115Z,26.40
2022-10-05T21:51:54.849Z,24.90
2022-10-05T21:54:23.821Z,21.80
2022-10-05T21:56:55.234Z,16.00
2022-10-05T21:59:29.007Z,19.50
2022-10-05T22:01:56.618Z,21.40
2022-10-05T22:04:24.179Z,15.60
2022-10-05T22:06:51.752Z,13.00
2022-10-05T22:09:19.287Z,12.90
2022-10-05T22:11:48.864Z,13.70
2022-10-05T22:14:16.550Z,14.50
2022-10-05T22:16:44.791Z,15.20
2022-10-05T22:19:18.919Z,14.50
2022-10-05T22:21:46.592Z,15.20
2022-10-05T22:24:14.206Z,15.30
2022-10-05T22:26:47.343Z,15.90
2022-10-05T22:29:16.860Z,13.90
2022-10-05T22:31:49.185Z,13.40
2022-10-05T22:34:18.841Z,13.10
2022-10-05T22:36:47.547Z,14.20
2022-10-05T22:39:16.500Z,16.30
2022-10-05T22:41:44.075Z,15.40
2022-10-05T22:44:11.674Z,13.90
2022-10-05T22:46:39.753Z,18.50
2022-10-05T22:49:07.352Z,15.80
2022-10-05T22:51:35.029Z,13.60
2022-10-05T22:54:02.659Z,14.60
2022-10-05T22:56:30.282Z,16.40
2022-10-05T22:58:57.944Z,15.50
2022-10-05T23:01:25.574Z,14.90
2022-10-05T23:03:54.470Z,15.90
2022-10-05T23:06:22.476Z,17.60
2022-10-05T23:08:50.409Z,13.40
2022-10-05T23:11:26.289Z,12.50
2022-10-05T23:13:57.144Z,14.90
2022-10-05T23:16:27.108Z,13.80
2022-10-05T23:18:56.355Z,12.80
2022-10-05T23:21:27.669Z,14.10
2022-10-05T23:23:55.836Z,12.90
2022-10-05T23:26:25.187Z,14.10
2022-10-05T23:28:52.848Z,14.70
2022-10-05T23:31:26.947Z,12.20
2022-10-05T23:33:55.434Z,15.60
2022-10-05T23:36:31.665Z,12.60
2022-10-05T23:39:00.163Z,14.20
2022-10-05T23:41:27.727Z,16.00
2022-10-05T23:43:55.396Z,13.50
2022-10-05T23:46:23.248Z,16.40
2022-10-05T23:48:50.970Z,16.60
2022-10-05T23:51:18.729Z,14.00
2022-10-05T23:53:46.336Z,13.80
2022-10-05T23:56:13.910Z,12.30
2022-10-05T23:58:41.500Z,16.20
